CheckWX is a tool to help pilots better visualize weather data.  It is not intended as a substitute for an official pre-flight weather briefing.

07:06:21 UTC

KLUK METAR
Cincinnati Municipal Lunken Field Airport
Cincinnati, Ohio, USA
Current

13 mins ago

KLUK 290653Z AUTO 22008KT 10SM FEW034 21/18 A2992 RMK AO2 SLP127 T02110183
Observed
May-29 @ 06:53 UTC
Wind
  • 220° at 8 KTS
Visibility
Flight Rules
VFR
Cloud Levels
  • Few at 3,400' AGL
Temperature
21°C / 70°F
Dewpoint
18°C / 64°F
Humidity
83%
Altimeter
29.92" Hg
Pressure
1013.22 hPa
Previous

1 hour ago

KLUK 290553Z AUTO 18005KT 10SM FEW050 OVC085 20/18 A2993 RMK AO2 SLP131 T02000183 10250 20200 50001
Observed
May-29 @ 05:53 UTC
Wind
  • 180° at 5 KTS
Visibility
Flight Rules
VFR
Cloud Levels
  • Few at 5,000' AGL
  • Overcast at 8,500' AGL
Temperature
20°C / 68°F
Dewpoint
18°C / 64°F
Humidity
88%
Altimeter
29.93" Hg
Pressure
1013.52 hPa
Previous

2 hours ago

KLUK 290453Z AUTO 19006KT 10SM CLR 20/18 A2994 RMK AO2 SLP134 T02000178 402830200
Observed
May-29 @ 04:53 UTC
Wind
  • 190° at 6 KTS
Visibility
Flight Rules
VFR
Cloud Levels
  • Clear skies
Dewpoint
18°C / 64°F
Humidity
88%
Altimeter
29.94" Hg
Pressure
1013.92 hPa